createdAt,value
2022-08-21T00:02:31.033Z,92.75
2022-08-21T00:07:53.431Z,93.96
2022-08-21T00:13:18.739Z,94.26
2022-08-21T00:18:40.753Z,95.01
2022-08-21T00:24:03.035Z,96.35
2022-08-21T00:29:25.484Z,96.54
2022-08-21T00:34:47.474Z,97.01
2022-08-21T00:40:13.522Z,96.95
2022-08-21T00:45:36.487Z,97.56
2022-08-21T00:51:13.533Z,99.09
2022-08-21T00:56:35.745Z,98.94
2022-08-21T01:01:57.812Z,99.18
2022-08-21T01:07:21.514Z,99.72
2022-08-21T01:12:45.324Z,99.10
2022-08-21T01:18:09.785Z,99.09
2022-08-21T01:23:31.894Z,99.96
2022-08-21T01:29:01.361Z,100.00
2022-08-21T01:34:23.162Z,100.00
2022-08-21T01:39:46.676Z,100.00
2022-08-21T01:45:09.664Z,100.00
2022-08-21T01:50:32.214Z,100.00
2022-08-21T01:55:54.015Z,100.00
2022-08-21T02:01:16.621Z,100.00
2022-08-21T02:06:39.595Z,100.00
2022-08-21T02:12:02.116Z,100.00
2022-08-21T02:17:24.245Z,100.00
2022-08-21T02:22:46.554Z,100.00
2022-08-21T02:28:12.307Z,100.00
2022-08-21T02:33:35.217Z,100.00
2022-08-21T02:38:57.645Z,100.00
2022-08-21T02:44:20.067Z,100.00
2022-08-21T02:49:41.675Z,100.00
2022-08-21T02:55:03.715Z,100.00
2022-08-21T03:00:29.785Z,100.00
2022-08-21T03:05:53.064Z,100.00
2022-08-21T03:11:16.425Z,100.00
2022-08-21T03:16:38.476Z,100.00
2022-08-21T03:22:00.795Z,100.00
2022-08-21T03:27:28.152Z,100.00
2022-08-21T03:32:52.455Z,100.00
2022-08-21T03:38:14.675Z,100.00
2022-08-21T03:43:37.750Z,100.00
2022-08-21T03:48:59.734Z,100.00
2022-08-21T03:54:21.955Z,100.00
2022-08-21T03:59:44.834Z,100.00
2022-08-21T04:05:09.311Z,100.00
2022-08-21T04:10:33.766Z,100.00
2022-08-21T04:15:57.066Z,100.00
2022-08-21T04:21:18.741Z,100.00
2022-08-21T04:26:46.345Z,100.00
2022-08-21T04:32:08.364Z,100.00
2022-08-21T04:37:30.554Z,98.61
2022-08-21T04:43:07.396Z,95.06
2022-08-21T04:48:32.474Z,90.34
2022-08-21T04:53:59.095Z,85.01
2022-08-21T04:59:36.981Z,79.32
2022-08-21T05:05:01.066Z,75.32
2022-08-21T05:10:24.115Z,72.01
2022-08-21T05:15:46.523Z,72.07
2022-08-21T05:21:08.367Z,68.58
2022-08-21T05:26:31.245Z,67.87
2022-08-21T05:31:54.013Z,63.98
2022-08-21T05:37:16.164Z,62.50
2022-08-21T05:42:38.358Z,60.45
2022-08-21T05:48:11.918Z,57.97
2022-08-21T05:53:34.184Z,57.56
2022-08-21T05:58:57.121Z,55.76
2022-08-21T06:04:19.681Z,55.23
2022-08-21T06:09:42.436Z,54.10
2022-08-21T06:15:04.681Z,53.36
2022-08-21T06:20:27.017Z,53.68
2022-08-21T06:25:48.642Z,52.51
2022-08-21T06:31:19.546Z,52.85
2022-08-21T06:36:41.304Z,51.93
2022-08-21T06:42:03.807Z,50.82
2022-08-21T06:47:26.062Z,49.78
2022-08-21T06:52:48.447Z,50.83
2022-08-21T06:58:11.502Z,49.17
2022-08-21T07:03:37.212Z,47.77
2022-08-21T07:08:59.297Z,48.62
2022-08-21T07:14:22.435Z,48.38
2022-08-21T07:19:47.634Z,46.48
2022-08-21T07:25:10.568Z,45.79
2022-08-21T07:30:33.642Z,45.33
2022-08-21T07:35:56.628Z,44.96
2022-08-21T07:41:22.875Z,44.60
2022-08-21T07:46:44.917Z,43.05
2022-08-21T07:52:07.617Z,43.76
2022-08-21T07:57:30.627Z,42.83
2022-08-21T08:02:55.772Z,42.76
2022-08-21T08:08:18.607Z,41.54
2022-08-21T08:13:49.930Z,41.65
2022-08-21T08:19:11.887Z,41.30
2022-08-21T08:24:39.687Z,40.00
2022-08-21T08:30:01.877Z,41.70
2022-08-21T08:35:26.623Z,38.56
2022-08-21T08:41:22.746Z,41.31
2022-08-21T08:46:51.942Z,41.20
2022-08-21T08:52:32.562Z,40.95
2022-08-21T08:57:56.547Z,40.57
2022-08-21T09:03:19.047Z,41.12
2022-08-21T09:08:51.169Z,40.14
2022-08-21T09:14:42.507Z,40.17
2022-08-21T09:20:37.011Z,39.59
2022-08-21T09:26:08.588Z,40.47
2022-08-21T09:31:37.731Z,41.51
2022-08-21T09:37:00.480Z,40.59
2022-08-21T09:42:30.690Z,39.32
2022-08-21T09:47:53.067Z,38.20
2022-08-21T09:53:25.650Z,37.43
2022-08-21T09:58:50.326Z,38.82
2022-08-21T10:04:12.707Z,36.21
2022-08-21T10:09:35.427Z,36.21
2022-08-21T10:15:23.249Z,37.16
2022-08-21T10:20:54.826Z,36.42
2022-08-21T10:26:39.086Z,37.53
2022-08-21T10:32:25.905Z,36.97
2022-08-21T10:38:33.469Z,34.79
2022-08-21T10:44:23.651Z,36.02
2022-08-21T10:50:03.171Z,35.15
2022-08-21T10:55:35.734Z,34.86
2022-08-21T11:01:12.536Z,35.22
2022-08-21T11:07:17.172Z,34.21
2022-08-21T11:12:48.066Z,34.75
2022-08-21T11:18:24.080Z,34.18
2022-08-21T11:23:56.155Z,35.15
2022-08-21T11:29:25.167Z,35.12
2022-08-21T11:35:09.183Z,34.18
2022-08-21T11:40:55.270Z,34.53
2022-08-21T11:46:30.182Z,34.91
2022-08-21T11:52:16.814Z,34.78
2022-08-21T11:57:48.754Z,34.73
2022-08-21T12:03:19.435Z,33.73
2022-08-21T12:08:45.670Z,34.45
2022-08-21T12:14:10.810Z,33.96
2022-08-21T12:19:34.047Z,33.90
2022-08-21T12:25:10.592Z,33.12
2022-08-21T12:30:41.426Z,33.68
2022-08-21T12:36:20.162Z,32.79
2022-08-21T12:41:51.223Z,32.98
2022-08-21T12:47:33.327Z,32.97
2022-08-21T12:53:20.333Z,33.43
2022-08-21T12:59:11.610Z,33.10
2022-08-21T13:04:43.334Z,33.31
2022-08-21T13:10:19.895Z,33.12
2022-08-21T13:15:47.719Z,33.34
2022-08-21T13:21:16.016Z,33.38
2022-08-21T13:26:38.015Z,33.61
2022-08-21T13:32:03.447Z,33.51
2022-08-21T13:37:28.156Z,33.73
2022-08-21T13:42:50.555Z,34.13
2022-08-21T13:48:12.427Z,34.42
2022-08-21T13:53:47.214Z,34.36
2022-08-21T13:59:09.148Z,34.12
2022-08-21T14:04:40.492Z,34.64
2022-08-21T14:10:13.748Z,35.37
2022-08-21T14:15:39.959Z,34.41
2022-08-21T14:21:18.017Z,34.44
2022-08-21T14:26:52.068Z,34.58
2022-08-21T14:32:33.027Z,35.25
2022-08-21T14:37:55.914Z,35.40
2022-08-21T14:43:27.945Z,35.47
2022-08-21T14:49:12.457Z,35.65
2022-08-21T14:54:43.117Z,34.65
2022-08-21T15:00:17.917Z,35.33
2022-08-21T15:05:40.107Z,35.41
2022-08-21T15:11:12.002Z,35.58
2022-08-21T15:16:37.805Z,36.11
2022-08-21T15:21:59.841Z,36.39
2022-08-21T15:27:23.497Z,36.81
2022-08-21T15:32:45.537Z,36.79
2022-08-21T15:38:07.627Z,36.90
2022-08-21T15:43:59.502Z,37.09
2022-08-21T15:49:21.427Z,37.42
2022-08-21T15:54:43.785Z,37.63
2022-08-21T16:00:16.326Z,37.97
2022-08-21T16:05:38.077Z,38.80
2022-08-21T16:11:02.016Z,39.20
2022-08-21T16:16:25.756Z,39.51
2022-08-21T16:21:48.400Z,40.00
2022-08-21T16:27:11.081Z,40.55
2022-08-21T16:32:33.174Z,40.48
2022-08-21T16:37:55.766Z,40.88
2022-08-21T16:43:18.674Z,41.52
2022-08-21T16:48:42.646Z,42.88
2022-08-21T16:54:05.045Z,43.60
2022-08-21T16:59:27.710Z,44.07
2022-08-21T17:04:50.208Z,44.70
2022-08-21T17:10:14.641Z,44.97
2022-08-21T17:15:38.159Z,45.48
2022-08-21T17:20:59.936Z,45.91
2022-08-21T17:26:21.712Z,46.68
2022-08-21T17:31:45.123Z,47.20
2022-08-21T17:37:09.557Z,47.72
2022-08-21T17:42:31.394Z,48.24
2022-08-21T17:47:53.980Z,48.26
2022-08-21T17:53:15.704Z,48.50
2022-08-21T17:58:38.231Z,49.27
2022-08-21T18:04:00.076Z,50.00
2022-08-21T18:09:23.732Z,50.50
2022-08-21T18:14:45.840Z,51.06
2022-08-21T18:20:08.793Z,51.71
2022-08-21T18:25:31.725Z,52.08
2022-08-21T18:30:55.482Z,52.91
2022-08-21T18:36:17.521Z,53.47
2022-08-21T18:41:39.966Z,53.65
2022-08-21T18:47:08.127Z,54.47
2022-08-21T18:52:31.314Z,54.35
2022-08-21T18:57:56.117Z,54.67
2022-08-21T19:03:23.930Z,55.47
2022-08-21T19:08:46.246Z,55.61
2022-08-21T19:14:15.823Z,55.99
2022-08-21T19:19:39.331Z,56.88
2022-08-21T19:25:01.718Z,57.44
2022-08-21T19:30:24.234Z,57.36
2022-08-21T19:35:47.454Z,57.68
2022-08-21T19:41:17.205Z,58.21
2022-08-21T19:46:42.417Z,58.43
2022-08-21T19:52:13.005Z,58.46
2022-08-21T19:57:46.756Z,59.02
2022-08-21T20:03:09.503Z,59.21
2022-08-21T20:08:32.144Z,60.12
2022-08-21T20:13:55.137Z,60.42
2022-08-21T20:19:20.398Z,60.67
2022-08-21T20:24:43.135Z,61.26
2022-08-21T20:30:07.003Z,61.31
2022-08-21T20:35:29.495Z,61.85
2022-08-21T20:40:53.295Z,62.29
2022-08-21T20:46:25.534Z,63.41
2022-08-21T20:51:52.845Z,63.82
2022-08-21T20:57:35.113Z,64.57
2022-08-21T21:03:17.321Z,64.89
2022-08-21T21:08:49.635Z,65.70
2022-08-21T21:14:25.344Z,65.37
2022-08-21T21:19:53.766Z,65.90
2022-08-21T21:25:40.098Z,66.32
2022-08-21T21:31:03.901Z,66.53
2022-08-21T21:36:43.982Z,66.95
2022-08-21T21:42:30.105Z,67.66
2022-08-21T21:48:23.264Z,68.08
2022-08-21T21:54:09.695Z,68.48
2022-08-21T21:59:51.974Z,69.30
2022-08-21T22:05:38.087Z,69.71
2022-08-21T22:11:24.079Z,70.28
2022-08-21T22:16:50.355Z,70.14
2022-08-21T22:22:25.942Z,70.38
2022-08-21T22:27:53.526Z,71.11
2022-08-21T22:33:25.281Z,71.55
2022-08-21T22:38:50.845Z,71.98
2022-08-21T22:50:34.356Z,72.72
2022-08-21T22:55:59.206Z,73.32
2022-08-21T23:01:20.986Z,73.69
2022-08-21T23:06:46.650Z,74.45
2022-08-21T23:12:33.217Z,74.80
2022-08-21T23:18:25.992Z,75.29
2022-08-21T23:30:08.784Z,76.35
2022-08-21T23:35:51.827Z,76.24
2022-08-21T23:41:34.285Z,76.73
2022-08-21T23:46:56.475Z,76.56
2022-08-21T23:52:49.925Z,76.61
2022-08-21T23:58:38.405Z,77.05
